createdAt,value
2022-08-26T00:01:29.662Z,18.40
2022-08-26T00:03:31.669Z,18.50
2022-08-26T00:05:35.703Z,18.50
2022-08-26T00:07:37.456Z,18.50
2022-08-26T00:09:41.373Z,18.50
2022-08-26T00:11:49.070Z,18.60
2022-08-26T00:13:55.916Z,18.60
2022-08-26T00:15:58.470Z,18.60
2022-08-26T00:18:00.454Z,18.50
2022-08-26T00:20:03.767Z,18.60
2022-08-26T00:22:06.054Z,18.50
2022-08-26T00:24:07.853Z,19.20
2022-08-26T00:26:09.766Z,18.70
2022-08-26T00:28:13.201Z,18.60
2022-08-26T00:30:22.929Z,18.80
2022-08-26T00:32:26.429Z,18.90
2022-08-26T00:34:30.902Z,18.80
2022-08-26T00:36:32.715Z,18.90
2022-08-26T00:38:37.922Z,19.10
2022-08-26T00:40:46.646Z,19.20
2022-08-26T00:42:48.391Z,19.10
2022-08-26T00:44:50.698Z,19.00
2022-08-26T00:46:58.640Z,19.10
2022-08-26T00:49:12.022Z,19.10
2022-08-26T00:51:20.997Z,19.40
2022-08-26T00:53:27.923Z,19.30
2022-08-26T00:55:40.994Z,19.20
2022-08-26T00:57:43.065Z,19.20
2022-08-26T00:59:56.749Z,19.20
2022-08-26T01:01:58.996Z,19.30
2022-08-26T01:04:05.968Z,19.10
2022-08-26T01:06:12.501Z,19.10
2022-08-26T01:08:17.243Z,19.10
2022-08-26T01:10:26.954Z,19.10
2022-08-26T01:12:34.084Z,19.10
2022-08-26T01:14:36.862Z,19.00
2022-08-26T01:16:38.735Z,19.10
2022-08-26T01:18:44.116Z,19.00
2022-08-26T01:21:03.087Z,19.10
2022-08-26T01:23:08.940Z,19.20
2022-08-26T01:25:11.103Z,19.30
2022-08-26T01:27:19.621Z,19.10
2022-08-26T01:29:21.352Z,19.10
2022-08-26T01:31:29.644Z,19.10
2022-08-26T01:33:58.598Z,19.20
2022-08-26T01:36:01.908Z,19.40
2022-08-26T01:38:04.053Z,19.40
2022-08-26T01:40:09.333Z,19.20
2022-08-26T01:42:16.344Z,19.30
2022-08-26T01:44:23.551Z,19.30
2022-08-26T01:46:28.206Z,19.50
2022-08-26T01:48:32.704Z,19.50
2022-08-26T01:50:35.862Z,19.40
2022-08-26T01:52:41.924Z,19.40
2022-08-26T01:54:46.379Z,19.60
2022-08-26T01:56:53.955Z,19.50
2022-08-26T01:59:01.369Z,19.40
2022-08-26T02:01:04.043Z,19.30
2022-08-26T02:03:16.635Z,19.50
2022-08-26T02:05:22.062Z,19.50
2022-08-26T02:07:28.314Z,19.50
2022-08-26T02:09:30.287Z,19.50
2022-08-26T02:11:34.731Z,19.50
2022-08-26T02:13:45.679Z,19.40
2022-08-26T02:15:48.132Z,19.60
2022-08-26T02:17:52.872Z,19.70
2022-08-26T02:19:58.519Z,19.60
2022-08-26T02:22:07.511Z,19.70
2022-08-26T02:24:16.753Z,19.80
2022-08-26T02:26:22.587Z,19.80
2022-08-26T02:28:30.977Z,19.70
2022-08-26T02:30:33.603Z,19.80
2022-08-26T02:32:36.192Z,19.70
2022-08-26T02:34:37.987Z,19.70
2022-08-26T02:36:45.402Z,19.80
2022-08-26T02:38:50.783Z,19.90
2022-08-26T02:40:54.402Z,19.90
2022-08-26T02:42:57.067Z,19.80
2022-08-26T02:45:00.011Z,20.00
2022-08-26T02:47:04.530Z,20.10
2022-08-26T02:49:07.286Z,20.00
2022-08-26T02:51:08.965Z,20.10
2022-08-26T02:53:12.147Z,20.50
2022-08-26T02:55:15.551Z,20.60
2022-08-26T02:57:20.645Z,20.50
2022-08-26T02:59:24.399Z,20.50
2022-08-26T03:01:30.074Z,20.50
2022-08-26T03:03:32.255Z,20.40
2022-08-26T03:05:35.293Z,20.40
2022-08-26T03:07:37.334Z,20.40
2022-08-26T03:09:39.543Z,20.30
2022-08-26T03:11:41.975Z,20.80
2022-08-26T03:13:46.394Z,20.80
2022-08-26T03:15:48.139Z,20.90
2022-08-26T03:17:52.524Z,20.90
2022-08-26T03:19:54.765Z,21.10
2022-08-26T03:21:59.356Z,21.30
2022-08-26T03:24:05.667Z,21.60
2022-08-26T03:26:08.841Z,22.00
2022-08-26T03:28:12.831Z,22.00
2022-08-26T03:30:38.699Z,22.50
2022-08-26T03:32:49.454Z,22.60
2022-08-26T03:34:55.610Z,22.80
2022-08-26T03:36:59.989Z,22.90
2022-08-26T03:39:03.880Z,22.90
2022-08-26T03:41:05.694Z,23.10
2022-08-26T03:43:10.005Z,23.10
2022-08-26T03:45:14.197Z,23.40
2022-08-26T03:47:17.116Z,23.40
2022-08-26T03:49:18.847Z,23.60
2022-08-26T03:51:20.676Z,23.80
2022-08-26T03:53:23.798Z,24.00
2022-08-26T03:55:27.502Z,24.40
2022-08-26T03:57:29.168Z,24.60
2022-08-26T03:59:34.559Z,24.50
2022-08-26T04:01:37.054Z,25.20
2022-08-26T04:03:57.368Z,25.40
2022-08-26T04:06:01.777Z,25.40
2022-08-26T04:08:05.936Z,25.50
2022-08-26T04:10:08.383Z,25.60
2022-08-26T04:12:14.192Z,26.00
2022-08-26T04:14:20.258Z,26.10
2022-08-26T04:16:22.417Z,26.10
2022-08-26T04:18:36.904Z,26.10
2022-08-26T04:20:39.237Z,26.20
2022-08-26T04:22:44.030Z,26.20
2022-08-26T04:24:46.459Z,26.20
2022-08-26T04:26:49.096Z,26.40
2022-08-26T04:28:55.751Z,26.40
2022-08-26T04:30:57.896Z,26.50
2022-08-26T04:33:01.587Z,26.50
2022-08-26T04:35:07.009Z,26.50
2022-08-26T04:37:13.294Z,26.60
2022-08-26T04:39:18.807Z,26.60
2022-08-26T04:41:23.585Z,26.50
2022-08-26T04:43:30.391Z,26.50
2022-08-26T04:45:37.576Z,26.80
2022-08-26T04:47:46.847Z,26.70
2022-08-26T04:49:48.602Z,26.90
2022-08-26T04:51:52.751Z,26.80
2022-08-26T04:54:00.061Z,26.90
2022-08-26T04:56:03.945Z,27.10
2022-08-26T04:58:08.736Z,26.90
2022-08-26T05:00:13.408Z,26.70
2022-08-26T05:02:15.217Z,26.70
2022-08-26T05:04:18.761Z,26.70
2022-08-26T05:06:21.175Z,26.80
2022-08-26T05:08:24.212Z,27.20
2022-08-26T05:10:29.230Z,27.00
2022-08-26T05:12:32.015Z,26.90
2022-08-26T05:14:33.720Z,26.90
2022-08-26T05:16:35.745Z,27.00
2022-08-26T05:18:43.444Z,26.90
2022-08-26T05:20:51.792Z,27.20
2022-08-26T05:22:56.209Z,26.90
2022-08-26T05:24:58.758Z,27.00
2022-08-26T05:27:00.545Z,26.90
2022-08-26T05:29:02.257Z,27.00
2022-08-26T05:31:19.984Z,27.20
2022-08-26T05:33:25.293Z,27.40
2022-08-26T05:35:31.936Z,27.00
2022-08-26T05:37:38.256Z,27.00
2022-08-26T05:39:43.582Z,27.10
2022-08-26T05:41:53.227Z,27.00
2022-08-26T05:44:01.971Z,27.00
2022-08-26T05:46:09.427Z,27.20
2022-08-26T05:48:12.053Z,27.60
2022-08-26T05:50:13.749Z,27.00
2022-08-26T05:52:17.602Z,27.10
2022-08-26T05:54:21.858Z,27.70
2022-08-26T05:56:27.441Z,27.10
2022-08-26T05:58:29.426Z,27.10
2022-08-26T06:00:33.377Z,27.10
2022-08-26T06:02:35.426Z,27.20
2022-08-26T06:04:37.157Z,27.20
2022-08-26T06:06:41.590Z,27.10
2022-08-26T06:08:49.360Z,27.20
2022-08-26T06:10:55.656Z,27.20
2022-08-26T06:13:04.720Z,27.30
2022-08-26T06:15:13.521Z,27.40
2022-08-26T06:17:17.265Z,27.20
2022-08-26T06:19:20.368Z,27.40
2022-08-26T06:21:25.726Z,27.20
2022-08-26T06:23:48.013Z,27.30
2022-08-26T06:25:50.384Z,27.30
2022-08-26T06:27:52.076Z,27.40
2022-08-26T06:29:56.128Z,27.40
2022-08-26T06:31:58.337Z,27.40
2022-08-26T06:34:00.517Z,27.40
2022-08-26T06:36:02.947Z,27.50
2022-08-26T06:38:08.375Z,27.50
2022-08-26T06:40:13.111Z,27.50
2022-08-26T06:42:16.196Z,27.50
2022-08-26T06:44:18.427Z,27.50
2022-08-26T06:46:21.780Z,27.40
2022-08-26T06:48:23.593Z,27.40
2022-08-26T06:50:30.174Z,27.30
2022-08-26T06:52:32.124Z,27.30
2022-08-26T06:54:34.005Z,27.30
2022-08-26T06:56:39.150Z,27.20
2022-08-26T06:58:42.027Z,27.20
2022-08-26T07:00:47.324Z,27.10
2022-08-26T07:02:49.410Z,27.00
2022-08-26T07:04:51.766Z,27.00
2022-08-26T07:06:58.805Z,27.00
2022-08-26T07:09:04.925Z,27.10
2022-08-26T07:11:08.919Z,27.00
2022-08-26T07:13:12.381Z,27.00
2022-08-26T07:15:14.351Z,27.10
2022-08-26T07:17:20.464Z,27.30
2022-08-26T07:19:30.014Z,27.40
2022-08-26T07:21:33.938Z,27.50
2022-08-26T07:23:36.034Z,27.50
2022-08-26T07:25:41.729Z,27.50
2022-08-26T07:27:43.553Z,27.80
2022-08-26T07:29:45.507Z,27.80
2022-08-26T07:31:47.218Z,27.60
2022-08-26T07:33:50.343Z,27.60
2022-08-26T07:35:52.732Z,27.70
2022-08-26T07:37:57.472Z,27.70
2022-08-26T07:39:59.235Z,27.70
2022-08-26T07:42:07.307Z,27.60
2022-08-26T07:44:10.118Z,27.50
2022-08-26T07:46:26.932Z,27.30
2022-08-26T07:48:29.068Z,27.40
2022-08-26T07:50:49.490Z,27.20
2022-08-26T07:52:52.451Z,27.00
2022-08-26T07:54:59.551Z,26.90
2022-08-26T07:57:05.218Z,27.00
2022-08-26T07:59:13.566Z,27.00
2022-08-26T08:01:19.126Z,26.90
2022-08-26T08:03:21.704Z,27.00
2022-08-26T08:05:33.429Z,27.00
2022-08-26T08:07:44.301Z,26.90
2022-08-26T08:09:52.110Z,26.90
2022-08-26T08:11:57.088Z,27.00
2022-08-26T08:14:02.553Z,27.00
2022-08-26T08:16:12.571Z,27.10
2022-08-26T08:18:16.762Z,27.30
2022-08-26T08:20:23.019Z,27.20
2022-08-26T08:22:25.274Z,27.30
2022-08-26T08:24:29.022Z,27.20
2022-08-26T08:26:30.770Z,27.30
2022-08-26T08:28:32.915Z,27.40
2022-08-26T08:30:39.253Z,27.30
2022-08-26T08:32:43.433Z,27.40
2022-08-26T08:34:45.232Z,27.40
2022-08-26T08:36:53.307Z,27.40
2022-08-26T08:38:55.915Z,27.40
2022-08-26T08:40:58.131Z,27.40
2022-08-26T08:43:06.094Z,27.30
2022-08-26T08:45:12.387Z,27.50
2022-08-26T08:47:37.953Z,27.40
2022-08-26T08:49:39.715Z,27.50
2022-08-26T08:51:41.455Z,27.40
2022-08-26T08:53:45.754Z,27.50
2022-08-26T08:55:54.361Z,27.50
2022-08-26T08:58:19.670Z,27.50
2022-08-26T09:00:30.548Z,27.50
2022-08-26T09:02:35.701Z,27.30
2022-08-26T09:05:15.061Z,27.30
2022-08-26T09:07:21.963Z,27.60
2022-08-26T09:09:44.397Z,27.40
2022-08-26T09:11:47.098Z,27.50
2022-08-26T09:13:53.979Z,27.50
2022-08-26T09:15:58.409Z,27.40
2022-08-26T09:18:31.297Z,27.40
2022-08-26T09:21:08.193Z,27.50
2022-08-26T09:23:13.922Z,27.30
2022-08-26T09:25:15.921Z,27.20
2022-08-26T09:27:54.666Z,27.20
2022-08-26T09:29:59.360Z,27.30
2022-08-26T09:32:27.676Z,27.40
2022-08-26T09:34:29.474Z,27.40
2022-08-26T09:36:44.591Z,27.30
2022-08-26T09:38:50.292Z,27.50
2022-08-26T09:41:03.016Z,27.40
2022-08-26T09:43:22.614Z,27.30
2022-08-26T09:45:29.005Z,27.20
2022-08-26T09:47:40.541Z,27.10
2022-08-26T09:49:42.487Z,27.20
2022-08-26T09:51:44.750Z,27.20
2022-08-26T09:54:02.731Z,27.40
2022-08-26T09:56:34.596Z,27.20
2022-08-26T09:58:42.253Z,27.10
2022-08-26T10:00:56.097Z,26.90
2022-08-26T10:02:59.739Z,26.90
2022-08-26T10:05:09.158Z,26.80
2022-08-26T10:07:46.188Z,26.70
2022-08-26T10:09:48.280Z,26.60
2022-08-26T10:11:57.717Z,26.40
2022-08-26T10:14:13.302Z,26.40
2022-08-26T10:16:23.724Z,26.50
2022-08-26T10:18:34.713Z,26.50
2022-08-26T10:20:41.670Z,26.40
2022-08-26T10:22:52.745Z,26.40
2022-08-26T10:24:57.724Z,26.50
2022-08-26T10:27:29.617Z,26.10
2022-08-26T10:29:46.345Z,26.10
2022-08-26T10:32:02.513Z,25.60
2022-08-26T10:34:05.681Z,25.60
2022-08-26T10:36:39.336Z,25.40
2022-08-26T10:38:48.938Z,25.10
2022-08-26T10:41:01.016Z,25.00
2022-08-26T10:43:22.250Z,25.00
2022-08-26T10:45:30.140Z,24.40
2022-08-26T10:47:45.165Z,24.30
2022-08-26T10:49:50.220Z,24.30
2022-08-26T10:52:12.049Z,23.90
2022-08-26T10:54:40.585Z,23.90
2022-08-26T10:56:58.078Z,23.60
2022-08-26T10:59:29.412Z,22.90
2022-08-26T11:01:51.063Z,23.00
2022-08-26T11:04:07.302Z,23.00
2022-08-26T11:06:19.212Z,23.10
2022-08-26T11:08:20.858Z,23.20
2022-08-26T11:10:24.767Z,23.20
2022-08-26T11:12:38.625Z,23.20
2022-08-26T11:14:53.495Z,22.70
2022-08-26T11:17:04.064Z,22.40
2022-08-26T11:19:11.755Z,22.50
2022-08-26T11:22:11.663Z,22.50
2022-08-26T11:24:46.466Z,22.40
2022-08-26T11:26:56.280Z,22.60
2022-08-26T11:28:58.310Z,22.20
2022-08-26T11:31:00.309Z,22.00
2022-08-26T11:33:08.105Z,21.90
2022-08-26T11:35:23.788Z,21.90
2022-08-26T11:37:35.661Z,21.80
2022-08-26T11:39:57.236Z,21.90
2022-08-26T11:42:05.053Z,21.70
2022-08-26T11:44:09.332Z,21.50
2022-08-26T11:46:12.630Z,21.70
2022-08-26T11:48:23.875Z,21.70
2022-08-26T11:50:28.523Z,21.80
2022-08-26T11:52:32.716Z,21.90
2022-08-26T11:54:35.651Z,22.20
2022-08-26T11:56:39.464Z,22.20
2022-08-26T11:58:44.242Z,22.10
2022-08-26T12:00:58.979Z,22.20
2022-08-26T12:03:05.048Z,22.00
2022-08-26T12:05:08.201Z,22.00
2022-08-26T12:07:12.853Z,21.90
2022-08-26T12:09:26.857Z,22.40
2022-08-26T12:11:33.982Z,21.90
2022-08-26T12:13:39.093Z,21.90
2022-08-26T12:15:40.821Z,22.00
2022-08-26T12:17:44.247Z,22.00
2022-08-26T12:19:46.235Z,22.20
2022-08-26T12:21:51.225Z,22.20
2022-08-26T12:24:02.735Z,22.40
2022-08-26T12:26:22.591Z,22.40
2022-08-26T12:28:25.091Z,22.50
2022-08-26T12:30:26.810Z,22.50
2022-08-26T12:32:28.738Z,22.70
2022-08-26T12:34:30.494Z,22.80
2022-08-26T12:36:37.917Z,22.80
2022-08-26T12:38:40.415Z,22.80
2022-08-26T12:40:46.795Z,22.70
2022-08-26T12:42:48.804Z,22.70
2022-08-26T12:44:58.709Z,22.80
2022-08-26T12:47:09.949Z,23.00
2022-08-26T12:49:11.752Z,23.10
2022-08-26T12:51:23.514Z,23.30
2022-08-26T12:53:29.768Z,23.30
2022-08-26T12:55:42.281Z,23.90
2022-08-26T12:57:44.175Z,23.50
2022-08-26T12:59:48.224Z,23.50
2022-08-26T13:01:51.889Z,23.60
2022-08-26T13:03:54.094Z,23.70
2022-08-26T13:06:23.517Z,23.80
2022-08-26T13:08:27.113Z,23.80
2022-08-26T13:10:37.632Z,24.00
2022-08-26T13:12:41.023Z,24.00
2022-08-26T13:14:43.832Z,24.00
2022-08-26T13:16:46.511Z,24.10
2022-08-26T13:18:55.658Z,24.10
2022-08-26T13:20:57.494Z,24.20
2022-08-26T13:23:05.961Z,24.10
2022-08-26T13:25:08.311Z,24.10
2022-08-26T13:27:13.063Z,24.10
2022-08-26T13:29:15.200Z,24.20
2022-08-26T13:31:17.185Z,24.20
2022-08-26T13:33:21.337Z,24.30
2022-08-26T13:35:23.115Z,24.30
2022-08-26T13:37:29.338Z,24.30
2022-08-26T13:39:38.125Z,24.30
2022-08-26T13:41:44.385Z,24.50
2022-08-26T13:43:46.125Z,24.50
2022-08-26T13:45:51.520Z,24.50
2022-08-26T13:47:53.217Z,24.60
2022-08-26T13:49:56.172Z,24.60
2022-08-26T13:52:00.066Z,24.60
2022-08-26T13:54:01.840Z,24.70
2022-08-26T13:56:05.996Z,24.80
2022-08-26T13:58:11.918Z,24.70
2022-08-26T14:00:14.546Z,24.40
2022-08-26T14:02:19.045Z,24.40
2022-08-26T14:04:27.052Z,24.40
2022-08-26T14:06:29.219Z,24.20
2022-08-26T14:08:33.241Z,24.20
2022-08-26T14:10:38.175Z,24.30
2022-08-26T14:12:43.705Z,24.10
2022-08-26T14:14:45.605Z,24.30
2022-08-26T14:16:59.803Z,24.30
2022-08-26T14:19:06.815Z,24.30
2022-08-26T14:21:11.354Z,24.20
2022-08-26T14:23:14.440Z,24.00
2022-08-26T14:25:18.054Z,24.20
2022-08-26T14:27:21.804Z,24.00
2022-08-26T14:29:23.473Z,24.20
2022-08-26T14:31:29.472Z,24.10
2022-08-26T14:33:34.463Z,24.20
2022-08-26T14:35:36.187Z,24.20
2022-08-26T14:37:37.921Z,24.00
2022-08-26T14:39:39.686Z,24.00
2022-08-26T14:41:46.028Z,24.10
2022-08-26T14:44:10.299Z,24.10
2022-08-26T14:46:14.406Z,24.00
2022-08-26T14:48:16.151Z,24.10
2022-08-26T14:50:20.989Z,24.00
2022-08-26T14:52:27.603Z,23.90
2022-08-26T14:54:29.539Z,24.10
2022-08-26T14:56:32.883Z,24.10
2022-08-26T14:58:39.888Z,24.20
2022-08-26T15:00:42.009Z,23.90
2022-08-26T15:02:44.411Z,23.80
2022-08-26T15:04:46.203Z,23.80
2022-08-26T15:06:51.585Z,23.80
2022-08-26T15:08:53.801Z,23.80
2022-08-26T15:10:57.877Z,23.60
2022-08-26T15:13:00.997Z,23.60
2022-08-26T15:15:07.452Z,23.50
2022-08-26T15:17:11.750Z,23.60
2022-08-26T15:19:15.963Z,23.60
2022-08-26T15:21:19.328Z,23.60
2022-08-26T15:23:21.457Z,23.50
2022-08-26T15:25:25.653Z,23.60
2022-08-26T15:27:27.935Z,23.50
2022-08-26T15:29:35.380Z,23.70
2022-08-26T15:31:40.846Z,23.70
2022-08-26T15:33:45.739Z,23.70
2022-08-26T15:35:47.444Z,23.70
2022-08-26T15:39:58.273Z,23.80
2022-08-26T15:42:03.163Z,23.80
2022-08-26T15:44:06.269Z,23.80
2022-08-26T15:46:11.194Z,23.80
2022-08-26T15:48:13.174Z,23.80
2022-08-26T15:50:20.846Z,23.80
2022-08-26T15:52:24.745Z,23.90
2022-08-26T15:54:26.723Z,23.90
2022-08-26T15:56:33.181Z,24.10
2022-08-26T15:58:38.319Z,24.00
2022-08-26T16:00:43.527Z,24.10
2022-08-26T16:02:45.475Z,24.10
2022-08-26T16:04:47.335Z,23.90
2022-08-26T16:06:51.373Z,24.00
2022-08-26T16:08:56.221Z,24.10
2022-08-26T16:10:57.916Z,24.10
2022-08-26T16:12:59.607Z,24.00
2022-08-26T16:15:01.447Z,24.00
2022-08-26T16:17:04.532Z,23.90
2022-08-26T16:19:08.088Z,24.00
2022-08-26T16:21:16.393Z,24.00
2022-08-26T16:23:18.840Z,23.90
2022-08-26T16:25:20.796Z,24.10
2022-08-26T16:27:23.112Z,24.10
2022-08-26T16:29:27.773Z,24.00
2022-08-26T16:31:29.638Z,24.00
2022-08-26T16:33:33.949Z,24.10
2022-08-26T16:35:39.033Z,24.20
2022-08-26T16:37:41.882Z,24.20
2022-08-26T16:39:45.178Z,24.20
2022-08-26T16:41:48.155Z,24.20
2022-08-26T16:43:50.196Z,24.30
2022-08-26T16:45:52.023Z,24.30
2022-08-26T16:47:56.015Z,24.20
2022-08-26T16:49:57.751Z,24.20
2022-08-26T16:52:02.475Z,24.20
2022-08-26T16:54:08.085Z,24.20
2022-08-26T16:56:17.369Z,24.10
2022-08-26T16:58:21.932Z,24.30
2022-08-26T17:00:28.389Z,24.30
2022-08-26T17:02:30.218Z,24.50
2022-08-26T17:04:32.037Z,24.30
2022-08-26T17:06:36.320Z,24.40
2022-08-26T17:08:40.698Z,24.40
2022-08-26T17:12:45.268Z,24.60
2022-08-26T17:14:46.958Z,24.70
2022-08-26T17:16:51.229Z,24.70
2022-08-26T17:18:53.059Z,24.80
2022-08-26T17:20:55.890Z,24.90
2022-08-26T17:22:58.615Z,24.90
2022-08-26T17:25:03.110Z,25.00
2022-08-26T17:27:06.874Z,25.40
2022-08-26T17:29:08.579Z,25.00
2022-08-26T17:31:13.396Z,25.10
2022-08-26T17:33:15.100Z,25.20
2022-08-26T17:35:22.899Z,25.30
2022-08-26T17:37:24.608Z,25.30
2022-08-26T17:39:31.270Z,25.40
2022-08-26T17:41:33.038Z,25.50
2022-08-26T17:43:37.603Z,25.50
2022-08-26T17:45:40.415Z,25.50
2022-08-26T17:47:42.233Z,25.60
2022-08-26T17:49:43.919Z,25.60
2022-08-26T17:51:45.587Z,25.60
2022-08-26T17:53:47.946Z,25.60
2022-08-26T17:55:50.158Z,25.70
2022-08-26T17:57:54.452Z,25.70
2022-08-26T17:59:56.495Z,25.70
2022-08-26T18:02:00.985Z,25.80
2022-08-26T18:04:05.190Z,25.90
2022-08-26T18:06:11.284Z,25.80
2022-08-26T18:08:13.182Z,25.80
2022-08-26T18:10:16.938Z,25.80
2022-08-26T18:12:22.757Z,25.80
2022-08-26T18:14:33.589Z,25.80
2022-08-26T18:16:38.393Z,25.80
2022-08-26T18:18:40.228Z,25.70
2022-08-26T18:20:44.502Z,25.70
2022-08-26T18:22:47.765Z,25.70
2022-08-26T18:24:59.042Z,25.70
2022-08-26T18:27:01.193Z,25.70
2022-08-26T18:29:07.109Z,25.70
2022-08-26T18:31:09.016Z,25.60
2022-08-26T18:33:11.907Z,25.70
2022-08-26T18:35:15.192Z,25.60
2022-08-26T18:37:16.938Z,25.60
2022-08-26T18:39:19.389Z,25.60
2022-08-26T18:41:29.627Z,25.70
2022-08-26T18:43:31.377Z,25.80
2022-08-26T18:45:33.137Z,25.80
2022-08-26T18:47:35.404Z,25.90
2022-08-26T18:49:39.759Z,25.90
2022-08-26T18:51:42.875Z,26.00
2022-08-26T18:53:44.924Z,25.90
2022-08-26T18:55:46.727Z,25.90
2022-08-26T18:57:48.578Z,26.00
2022-08-26T18:59:52.308Z,26.10
2022-08-26T19:01:54.393Z,26.00
2022-08-26T19:03:58.633Z,25.90
2022-08-26T19:06:03.400Z,26.10
2022-08-26T19:08:05.246Z,26.10
2022-08-26T19:10:07.758Z,26.20
2022-08-26T19:12:10.272Z,26.10
2022-08-26T19:14:19.654Z,26.20
2022-08-26T19:16:24.729Z,26.20
2022-08-26T19:18:26.534Z,26.20
2022-08-26T19:20:28.523Z,26.20
2022-08-26T19:22:31.473Z,26.20
2022-08-26T19:24:33.486Z,26.20
2022-08-26T19:26:36.209Z,26.20
2022-08-26T19:28:41.751Z,26.20
2022-08-26T19:30:45.396Z,26.30
2022-08-26T19:32:48.015Z,26.40
2022-08-26T19:34:56.535Z,26.40
2022-08-26T19:37:00.037Z,26.40
2022-08-26T19:39:06.403Z,26.40
2022-08-26T19:41:16.476Z,26.60
2022-08-26T19:43:18.179Z,26.60
2022-08-26T19:45:25.123Z,26.60
2022-08-26T19:47:27.166Z,26.60
2022-08-26T19:49:28.887Z,26.70
2022-08-26T19:51:32.665Z,26.70
2022-08-26T19:53:34.416Z,26.70
2022-08-26T19:55:36.139Z,26.70
2022-08-26T19:57:41.602Z,26.70
2022-08-26T19:59:43.447Z,26.80
2022-08-26T20:01:45.149Z,26.90
2022-08-26T20:03:51.491Z,26.90
2022-08-26T20:05:53.725Z,27.10
2022-08-26T20:07:55.523Z,27.10
2022-08-26T20:09:57.504Z,27.10
2022-08-26T20:11:59.726Z,27.20
2022-08-26T20:14:02.565Z,27.20
2022-08-26T20:16:07.106Z,27.40
2022-08-26T20:18:28.869Z,27.40
2022-08-26T20:20:49.241Z,27.50
2022-08-26T20:22:50.978Z,27.40
2022-08-26T20:24:58.504Z,27.40
2022-08-26T20:27:03.241Z,27.50
2022-08-26T20:29:15.645Z,27.60
2022-08-26T20:31:21.390Z,27.80
2022-08-26T20:33:23.158Z,27.60
2022-08-26T20:35:24.935Z,27.70
2022-08-26T20:37:26.718Z,27.80
2022-08-26T20:39:29.587Z,27.90
2022-08-26T20:41:31.446Z,27.80
2022-08-26T20:43:33.205Z,27.90
2022-08-26T20:45:35.519Z,27.80
2022-08-26T20:47:39.849Z,27.90
2022-08-26T20:49:41.639Z,28.00
2022-08-26T20:51:45.447Z,28.00
2022-08-26T20:53:50.103Z,28.10
2022-08-26T20:55:53.640Z,28.10
2022-08-26T20:57:56.993Z,28.10
2022-08-26T21:00:05.028Z,28.10
2022-08-26T21:02:06.816Z,28.10
2022-08-26T21:04:12.305Z,28.00
2022-08-26T21:06:14.191Z,28.20
2022-08-26T21:08:17.823Z,28.10
2022-08-26T21:10:19.629Z,28.10
2022-08-26T21:12:22.141Z,28.10
2022-08-26T21:14:26.270Z,28.10
2022-08-26T21:16:30.558Z,28.10
2022-08-26T21:18:32.551Z,28.10
2022-08-26T21:20:34.300Z,28.10
2022-08-26T21:22:36.009Z,28.20
2022-08-26T21:24:37.731Z,28.40
2022-08-26T21:26:39.773Z,28.70
2022-08-26T21:28:43.234Z,28.90
2022-08-26T21:30:44.925Z,29.00
2022-08-26T21:32:46.645Z,29.00
2022-08-26T21:34:48.378Z,29.00
2022-08-26T21:36:50.164Z,29.00
2022-08-26T21:38:54.592Z,29.30
2022-08-26T21:41:02.418Z,29.40
2022-08-26T21:43:06.131Z,29.50
2022-08-26T21:45:08.319Z,29.50
2022-08-26T21:47:10.007Z,30.00
2022-08-26T21:49:15.847Z,29.60
2022-08-26T21:51:19.645Z,29.80
2022-08-26T21:53:25.580Z,29.90
2022-08-26T21:55:27.323Z,29.90
2022-08-26T21:57:29.884Z,29.90
2022-08-26T21:59:34.856Z,30.00
2022-08-26T22:01:38.860Z,30.00
2022-08-26T22:03:47.445Z,30.00
2022-08-26T22:05:51.096Z,30.00
2022-08-26T22:07:53.009Z,30.10
2022-08-26T22:09:56.833Z,30.10
2022-08-26T22:12:00.349Z,30.20
2022-08-26T22:14:02.197Z,30.20
2022-08-26T22:16:06.916Z,30.40
2022-08-26T22:18:09.552Z,30.50
2022-08-26T22:20:16.887Z,30.40
2022-08-26T22:22:18.614Z,30.40
2022-08-26T22:24:22.009Z,30.60
2022-08-26T22:26:28.001Z,30.70
2022-08-26T22:28:29.721Z,30.80
2022-08-26T22:30:34.161Z,30.90
2022-08-26T22:32:39.467Z,30.90
2022-08-26T22:34:41.824Z,30.90
2022-08-26T22:36:47.964Z,31.10
2022-08-26T22:38:50.727Z,31.10
2022-08-26T22:40:56.405Z,31.30
2022-08-26T22:43:00.262Z,31.40
2022-08-26T22:45:03.303Z,31.30
2022-08-26T22:47:09.645Z,31.30
2022-08-26T22:49:15.673Z,31.40
2022-08-26T22:51:17.959Z,31.80
2022-08-26T22:53:21.719Z,31.70
2022-08-26T22:55:23.982Z,31.60
2022-08-26T22:57:25.810Z,31.80
2022-08-26T22:59:27.695Z,31.80
2022-08-26T23:01:35.742Z,32.10
2022-08-26T23:03:37.748Z,32.00
2022-08-26T23:05:41.043Z,32.00
2022-08-26T23:07:43.185Z,32.20
2022-08-26T23:09:46.304Z,32.20
2022-08-26T23:11:48.814Z,32.20
2022-08-26T23:13:50.666Z,32.30
2022-08-26T23:16:03.313Z,32.40
2022-08-26T23:18:06.088Z,32.70
2022-08-26T23:20:12.687Z,32.40
2022-08-26T23:22:14.361Z,32.50
2022-08-26T23:24:17.249Z,32.40
2022-08-26T23:26:19.801Z,32.50
2022-08-26T23:28:21.660Z,32.40
2022-08-26T23:30:26.313Z,32.50
2022-08-26T23:32:28.092Z,32.60
2022-08-26T23:34:49.912Z,32.40
2022-08-26T23:36:58.282Z,32.50
2022-08-26T23:39:01.878Z,32.30
2022-08-26T23:41:03.720Z,32.30
2022-08-26T23:43:07.977Z,32.30
2022-08-26T23:45:12.805Z,32.50
2022-08-26T23:47:15.643Z,32.50
2022-08-26T23:49:17.326Z,32.50
2022-08-26T23:51:43.020Z,32.50
2022-08-26T23:53:47.846Z,32.50
2022-08-26T23:55:52.087Z,32.50
2022-08-26T23:57:53.912Z,32.40
2022-08-26T23:59:55.762Z,32.40
